createdAt,value
2018-08-30T00:00:46.262Z,14.27
2018-08-30T00:03:16.597Z,14.57
2018-08-30T00:05:46.939Z,12.57
2018-08-30T00:08:16.379Z,14.07
2018-08-30T00:10:46.608Z,14.17
2018-08-30T00:13:16.076Z,14.63
2018-08-30T00:15:45.725Z,12.37
2018-08-30T00:18:15.700Z,15.83
2018-08-30T00:20:45.896Z,16.40
2018-08-30T00:23:15.663Z,12.63
2018-08-30T00:25:46.240Z,15.00
2018-08-30T00:28:15.984Z,13.87
2018-08-30T00:30:45.677Z,15.20
2018-08-30T00:33:16.181Z,28.37
2018-08-30T00:35:46.787Z,42.17
2018-08-30T00:38:16.217Z,44.17
2018-08-30T00:40:45.628Z,36.87
2018-08-30T00:43:14.673Z,18.83
2018-08-30T00:45:43.036Z,19.67
2018-08-30T00:48:11.385Z,24.33
2018-08-30T00:50:40.092Z,14.83
2018-08-30T00:53:08.504Z,18.03
2018-08-30T00:55:36.853Z,14.87
2018-08-30T00:58:05.220Z,16.77
2018-08-30T01:00:33.545Z,15.77
2018-08-30T01:03:01.916Z,16.57
2018-08-30T01:05:31.364Z,14.77
2018-08-30T01:07:59.713Z,17.90
2018-08-30T01:10:28.059Z,14.07
2018-08-30T01:12:56.913Z,16.57
2018-08-30T01:15:27.265Z,19.83
2018-08-30T01:17:56.142Z,14.77
2018-08-30T01:20:25.457Z,14.73
2018-08-30T01:22:54.805Z,20.40
2018-08-30T01:25:23.573Z,20.00
2018-08-30T01:27:52.514Z,15.40
2018-08-30T01:30:20.865Z,19.67
2018-08-30T01:32:49.229Z,16.23
2018-08-30T01:35:17.559Z,21.80
2018-08-30T01:37:47.213Z,14.83
2018-08-30T01:40:15.789Z,17.70
2018-08-30T01:42:44.136Z,17.50
2018-08-30T01:45:12.473Z,18.57
2018-08-30T01:47:41.681Z,16.50
2018-08-30T01:50:10.016Z,21.07
2018-08-30T01:52:39.384Z,22.17
2018-08-30T01:55:07.733Z,21.10
2018-08-30T01:57:37.160Z,16.43
2018-08-30T02:00:06.429Z,12.30
2018-08-30T02:02:35.765Z,14.37
2018-08-30T02:05:04.674Z,17.00
2018-08-30T02:07:33.116Z,14.60
2018-08-30T02:10:02.370Z,14.83
2018-08-30T02:12:31.669Z,16.87
2018-08-30T02:15:00.047Z,16.77
2018-08-30T02:17:28.517Z,14.00
2018-08-30T02:19:57.865Z,19.33
2018-08-30T02:22:27.250Z,21.10
2018-08-30T02:24:56.420Z,12.30
2018-08-30T02:27:25.629Z,22.60
2018-08-30T02:29:55.029Z,14.30
2018-08-30T02:32:25.109Z,17.03
2018-08-30T02:34:54.321Z,18.20
2018-08-30T02:37:23.786Z,17.67
2018-08-30T02:39:53.688Z,23.07
2018-08-30T02:42:22.599Z,15.67
2018-08-30T02:44:52.582Z,15.67
2018-08-30T02:47:20.929Z,20.70
2018-08-30T02:49:49.271Z,16.70
2018-08-30T02:52:17.612Z,17.33
2018-08-30T02:54:46.648Z,14.37
2018-08-30T02:57:15.937Z,19.30
2018-08-30T02:59:45.439Z,26.63
2018-08-30T03:02:14.602Z,22.63
2018-08-30T03:04:43.589Z,22.77
2018-08-30T03:07:12.057Z,16.93
2018-08-30T03:09:40.642Z,29.20
2018-08-30T03:12:08.996Z,18.33
2018-08-30T03:14:37.553Z,14.13
2018-08-30T03:17:05.961Z,19.20
2018-08-30T03:19:34.446Z,18.03
2018-08-30T03:22:02.804Z,14.00
2018-08-30T03:24:31.136Z,33.67
2018-08-30T03:27:00.604Z,42.33
2018-08-30T03:29:28.948Z,52.33
2018-08-30T03:31:57.283Z,54.97
2018-08-30T03:34:25.625Z,39.70
2018-08-30T03:36:54.677Z,38.13
2018-08-30T03:39:23.692Z,32.77
2018-08-30T03:41:52.692Z,24.63
2018-08-30T03:44:21.895Z,33.43
2018-08-30T03:46:51.120Z,19.50
2018-08-30T03:49:19.554Z,17.57
2018-08-30T03:51:47.892Z,25.17
2018-08-30T03:54:16.282Z,22.20
2018-08-30T03:56:45.116Z,18.60
2018-08-30T03:59:14.142Z,20.63
2018-08-30T04:01:42.560Z,17.10
2018-08-30T04:04:10.943Z,16.67
2018-08-30T04:06:39.311Z,15.03
2018-08-30T04:09:09.301Z,20.03
2018-08-30T04:11:37.737Z,20.80
2018-08-30T04:14:06.122Z,18.40
2018-08-30T04:16:34.497Z,24.17
2018-08-30T04:19:06.200Z,15.77
2018-08-30T04:21:35.326Z,18.13
2018-08-30T04:24:04.744Z,17.27
2018-08-30T04:26:34.072Z,19.10
2018-08-30T04:29:03.517Z,22.27
2018-08-30T04:31:31.907Z,18.50
2018-08-30T04:34:00.277Z,17.77
2018-08-30T04:36:28.689Z,21.30
2018-08-30T04:38:58.019Z,19.20
2018-08-30T04:41:27.833Z,18.60
2018-08-30T04:43:56.212Z,19.00
2018-08-30T04:46:25.268Z,23.20
2018-08-30T04:48:54.301Z,23.50
2018-08-30T04:51:23.798Z,22.20
2018-08-30T04:53:52.208Z,19.37
2018-08-30T04:56:20.551Z,21.20
2018-08-30T04:58:49.864Z,23.70
2018-08-30T05:01:18.193Z,22.87
2018-08-30T05:03:46.543Z,20.30
2018-08-30T05:06:15.945Z,51.60
2018-08-30T05:08:44.300Z,50.13
2018-08-30T05:11:12.634Z,33.43
2018-08-30T05:13:40.985Z,35.00
2018-08-30T05:16:09.327Z,19.90
2018-08-30T05:18:38.080Z,22.03
2018-08-30T05:21:06.408Z,20.67
2018-08-30T05:23:34.847Z,19.07
2018-08-30T05:26:03.205Z,18.50
2018-08-30T05:28:32.037Z,18.73
2018-08-30T05:31:00.377Z,21.57
2018-08-30T05:33:28.859Z,27.80
2018-08-30T05:35:57.275Z,18.73
2018-08-30T05:38:26.045Z,23.23
2018-08-30T05:40:54.500Z,21.00
2018-08-30T05:43:23.096Z,23.77
2018-08-30T05:45:51.529Z,27.60
2018-08-30T05:48:19.973Z,21.27
2018-08-30T05:50:48.325Z,23.63
2018-08-30T05:53:16.751Z,18.77
2018-08-30T05:55:45.565Z,20.37
2018-08-30T05:58:14.898Z,22.10
2018-08-30T06:00:43.247Z,21.27
2018-08-30T06:03:11.587Z,22.93
2018-08-30T06:05:40.929Z,21.50
2018-08-30T06:08:09.331Z,18.40
2018-08-30T06:10:39.902Z,23.03
2018-08-30T06:13:09.202Z,24.53
2018-08-30T06:15:37.519Z,34.27
2018-08-30T06:18:05.892Z,25.60
2018-08-30T06:20:34.250Z,19.93
2018-08-30T06:23:03.664Z,20.50
2018-08-30T06:25:32.925Z,29.37
2018-08-30T06:28:02.251Z,24.10
2018-08-30T06:30:31.537Z,24.20
2018-08-30T06:33:00.961Z,22.30
2018-08-30T06:35:30.188Z,27.83
2018-08-30T06:37:59.640Z,39.97
2018-08-30T06:40:29.020Z,24.47
2018-08-30T06:42:58.366Z,28.23
2018-08-30T06:45:27.673Z,23.90
2018-08-30T06:47:56.890Z,22.87
2018-08-30T06:50:27.529Z,33.60
2018-08-30T06:52:56.996Z,30.00
2018-08-30T06:55:25.724Z,25.90
2018-08-30T06:57:55.828Z,19.67
2018-08-30T07:00:25.960Z,25.83
2018-08-30T07:02:56.693Z,18.90
2018-08-30T07:05:26.058Z,22.50
2018-08-30T07:07:55.434Z,21.93
2018-08-30T07:10:25.366Z,20.93
2018-08-30T07:12:55.786Z,24.70
2018-08-30T07:15:25.155Z,18.97
2018-08-30T07:17:54.519Z,22.30
2018-08-30T07:20:24.784Z,28.93
2018-08-30T07:22:54.896Z,18.70
2018-08-30T07:25:25.141Z,23.60
2018-08-30T07:27:55.456Z,27.97
2018-08-30T07:30:26.129Z,21.10
2018-08-30T07:32:55.461Z,25.43
2018-08-30T07:35:25.488Z,23.50
2018-08-30T07:37:55.560Z,28.90
2018-08-30T07:40:23.896Z,27.80
2018-08-30T07:42:53.477Z,23.77
2018-08-30T07:45:21.829Z,22.30
2018-08-30T07:47:50.217Z,24.80
2018-08-30T07:50:18.581Z,22.73
2018-08-30T07:52:47.881Z,19.93
2018-08-30T07:55:17.453Z,22.30
2018-08-30T07:57:46.935Z,22.77
2018-08-30T08:00:18.383Z,29.10
2018-08-30T08:02:47.945Z,23.90
2018-08-30T08:05:18.233Z,19.43
2018-08-30T08:07:47.488Z,22.90
2018-08-30T08:10:16.877Z,21.40
2018-08-30T08:12:47.172Z,22.70
2018-08-30T08:15:16.336Z,22.40
2018-08-30T08:17:46.446Z,22.20
2018-08-30T08:20:17.337Z,27.73
2018-08-30T08:22:46.605Z,22.13
2018-08-30T08:25:17.095Z,23.30
2018-08-30T08:27:46.493Z,21.77
2018-08-30T08:30:16.914Z,28.33
2018-08-30T08:32:47.133Z,22.43
2018-08-30T08:35:16.744Z,21.27
2018-08-30T08:37:45.986Z,23.60
2018-08-30T08:40:14.346Z,26.70
2018-08-30T08:42:42.739Z,26.40
2018-08-30T08:45:11.137Z,23.37
2018-08-30T08:47:39.621Z,23.10
2018-08-30T08:50:07.950Z,25.53
2018-08-30T08:52:36.330Z,29.70
2018-08-30T08:55:04.740Z,24.63
2018-08-30T08:57:34.068Z,26.70
2018-08-30T09:00:02.405Z,25.20
2018-08-30T09:02:30.934Z,28.20
2018-08-30T09:04:59.258Z,30.60
2018-08-30T09:07:27.711Z,25.00
2018-08-30T09:09:56.053Z,31.90
2018-08-30T09:12:26.372Z,27.60
2018-08-30T09:14:55.408Z,30.13
2018-08-30T09:17:24.916Z,34.07
2018-08-30T09:19:55.277Z,28.60
2018-08-30T09:22:25.455Z,30.70
2018-08-30T09:24:54.837Z,34.97
2018-08-30T09:27:24.878Z,32.23
2018-08-30T09:29:55.578Z,36.80
2018-08-30T09:32:24.096Z,34.73
2018-08-30T09:34:53.907Z,33.93
2018-08-30T09:37:23.876Z,31.10
2018-08-30T09:39:52.932Z,33.20
2018-08-30T09:42:21.272Z,34.53
2018-08-30T09:44:50.577Z,37.23
2018-08-30T09:47:19.916Z,42.00
2018-08-30T09:49:48.356Z,35.30
2018-08-30T09:52:17.597Z,38.23
2018-08-30T09:54:46.765Z,42.60
2018-08-30T09:57:17.254Z,42.07
2018-08-30T09:59:46.410Z,42.17
2018-08-30T10:02:21.977Z,43.40
2018-08-30T10:04:51.435Z,50.90
2018-08-30T10:07:19.782Z,42.60
2018-08-30T10:09:49.108Z,45.77
2018-08-30T10:12:18.348Z,42.83
2018-08-30T10:14:47.724Z,49.17
2018-08-30T10:17:16.920Z,47.70
2018-08-30T10:19:47.236Z,46.03
2018-08-30T10:22:16.633Z,54.27
2018-08-30T10:24:45.671Z,49.43
2018-08-30T10:27:16.001Z,51.63
2018-08-30T10:29:46.260Z,50.80
2018-08-30T10:32:16.568Z,41.00
2018-08-30T10:34:46.838Z,47.67
2018-08-30T10:37:16.628Z,50.07
2018-08-30T10:39:46.857Z,51.30
2018-08-30T10:42:17.737Z,50.20
2018-08-30T10:44:47.506Z,45.87
2018-08-30T10:47:16.840Z,47.87
2018-08-30T10:49:47.297Z,50.30
2018-08-30T10:52:16.589Z,45.97
2018-08-30T10:54:46.804Z,44.50
2018-08-30T10:57:15.780Z,44.47
2018-08-30T10:59:44.848Z,46.40
2018-08-30T11:02:13.940Z,35.80
2018-08-30T11:04:42.309Z,43.63
2018-08-30T11:07:10.678Z,44.10
2018-08-30T11:09:39.029Z,40.97
2018-08-30T11:12:07.368Z,45.87
2018-08-30T11:14:35.700Z,40.00
2018-08-30T11:17:04.055Z,43.53
2018-08-30T11:19:32.430Z,42.37
2018-08-30T11:22:00.760Z,46.83
2018-08-30T11:24:29.174Z,34.60
2018-08-30T11:26:57.528Z,36.63
2018-08-30T11:29:27.269Z,35.47
2018-08-30T11:31:56.244Z,34.53
2018-08-30T11:34:25.122Z,34.40
2018-08-30T11:36:53.966Z,30.60
2018-08-30T11:39:22.967Z,30.60
2018-08-30T11:41:51.425Z,32.47
2018-08-30T11:44:19.757Z,33.03
2018-08-30T11:46:48.097Z,25.80
2018-08-30T11:49:16.452Z,29.47
2018-08-30T11:51:45.573Z,28.83
2018-08-30T11:54:15.734Z,26.83
2018-08-30T11:56:44.845Z,26.77
2018-08-30T11:59:13.182Z,23.33
2018-08-30T12:01:41.592Z,25.40
2018-08-30T12:04:10.133Z,25.83
2018-08-30T12:06:38.558Z,25.00
2018-08-30T12:09:08.433Z,21.60
2018-08-30T12:11:37.441Z,26.70
2018-08-30T12:14:05.829Z,21.13
2018-08-30T12:16:34.484Z,25.63
2018-08-30T12:19:03.729Z,25.97
2018-08-30T12:21:32.072Z,25.77
2018-08-30T12:24:00.636Z,23.23
2018-08-30T12:26:28.989Z,18.67
2018-08-30T12:28:58.328Z,19.00
2018-08-30T12:31:26.821Z,17.73
2018-08-30T12:33:56.282Z,15.27
2018-08-30T12:36:25.783Z,11.30
2018-08-30T12:38:54.093Z,15.93
2018-08-30T12:41:22.989Z,12.93
2018-08-30T12:43:51.523Z,16.37
2018-08-30T12:46:20.269Z,14.43
2018-08-30T12:48:48.596Z,20.00
2018-08-30T12:51:17.138Z,14.50
2018-08-30T12:53:46.509Z,16.10
2018-08-30T12:56:17.228Z,13.00
2018-08-30T12:58:47.123Z,11.73
2018-08-30T13:01:16.332Z,13.40
2018-08-30T13:03:46.125Z,13.27
2018-08-30T13:06:16.452Z,14.87
2018-08-30T13:08:45.919Z,10.07
2018-08-30T13:11:16.513Z,9.60
2018-08-30T13:13:46.868Z,14.03
2018-08-30T13:16:16.183Z,12.70
2018-08-30T13:18:46.366Z,12.50
2018-08-30T13:21:16.668Z,13.13
2018-08-30T13:23:46.945Z,16.10
2018-08-30T13:26:16.180Z,15.93
2018-08-30T13:28:46.142Z,12.83
2018-08-30T13:31:16.645Z,13.90
2018-08-30T13:33:47.210Z,12.70
2018-08-30T13:36:16.520Z,18.57
2018-08-30T13:38:46.754Z,15.83
2018-08-30T13:41:20.373Z,18.93
2018-08-30T13:43:49.756Z,16.10
2018-08-30T13:46:18.998Z,15.40
2018-08-30T13:48:47.260Z,15.53
2018-08-30T13:51:17.025Z,14.57
2018-08-30T13:53:46.194Z,14.57
2018-08-30T13:56:16.833Z,11.97
2018-08-30T13:58:46.489Z,13.00
2018-08-30T14:01:16.763Z,17.00
2018-08-30T14:03:45.417Z,12.00
2018-08-30T14:06:15.493Z,9.80
2018-08-30T14:08:44.989Z,11.33
2018-08-30T14:11:14.741Z,10.53
2018-08-30T14:13:43.514Z,17.77
2018-08-30T14:16:13.019Z,14.27
2018-08-30T14:18:41.717Z,13.77
2018-08-30T14:21:11.009Z,12.60
2018-08-30T14:23:40.430Z,15.10
2018-08-30T14:26:09.705Z,12.87
2018-08-30T14:28:38.072Z,15.40
2018-08-30T14:31:07.419Z,10.67
2018-08-30T14:33:36.709Z,14.20
2018-08-30T14:36:06.056Z,10.80
2018-08-30T14:38:35.395Z,11.70
2018-08-30T14:41:05.291Z,15.77
2018-08-30T14:43:34.376Z,13.77
2018-08-30T14:46:03.897Z,12.20
2018-08-30T14:48:33.400Z,11.83
2018-08-30T14:51:02.560Z,13.73
2018-08-30T14:53:32.189Z,11.83
2018-08-30T14:56:01.241Z,11.37
2018-08-30T14:58:29.647Z,13.23
2018-08-30T15:00:59.036Z,11.13
2018-08-30T15:03:28.312Z,11.20
2018-08-30T15:05:57.802Z,13.30
2018-08-30T15:08:26.982Z,12.17
2018-08-30T15:10:56.191Z,11.77
2018-08-30T15:13:25.218Z,11.07
2018-08-30T15:15:54.152Z,10.33
2018-08-30T15:18:23.148Z,11.13
2018-08-30T15:20:51.485Z,27.27
2018-08-30T15:23:19.835Z,11.60
2018-08-30T15:25:49.769Z,11.53
2018-08-30T15:28:17.983Z,12.27
2018-08-30T15:30:46.312Z,12.03
2018-08-30T15:33:15.567Z,10.70
2018-08-30T15:35:43.892Z,11.80
2018-08-30T15:38:12.234Z,13.57
2018-08-30T15:40:40.573Z,10.90
2018-08-30T15:43:08.979Z,11.13
2018-08-30T15:45:45.675Z,12.93
2018-08-30T15:48:15.176Z,12.33
2018-08-30T15:50:44.232Z,15.27
2018-08-30T15:53:13.309Z,12.63
2018-08-30T15:55:41.680Z,13.70
2018-08-30T15:58:09.993Z,10.80
2018-08-30T16:00:38.333Z,11.73
2018-08-30T16:03:07.864Z,13.30
2018-08-30T16:05:36.199Z,13.33
2018-08-30T16:08:04.585Z,10.13
2018-08-30T16:10:32.961Z,12.13
2018-08-30T16:13:02.426Z,9.50
2018-08-30T16:15:31.606Z,10.60
2018-08-30T16:18:01.048Z,11.17
2018-08-30T16:20:30.422Z,10.80
2018-08-30T16:23:07.408Z,13.50
2018-08-30T16:25:36.029Z,11.13
2018-08-30T16:28:06.063Z,16.10
2018-08-30T16:30:35.438Z,15.10
2018-08-30T16:33:04.781Z,10.73
2018-08-30T16:35:34.018Z,9.63
2018-08-30T16:38:03.317Z,12.23
2018-08-30T16:40:32.640Z,14.30
2018-08-30T16:43:01.970Z,10.20
2018-08-30T16:45:31.389Z,8.93
2018-08-30T16:48:00.710Z,9.43
2018-08-30T16:50:30.041Z,10.27
2018-08-30T16:52:59.376Z,10.40
2018-08-30T16:55:28.703Z,10.70
2018-08-30T16:57:57.917Z,8.67
2018-08-30T17:00:26.897Z,8.10
2018-08-30T17:02:57.042Z,7.47
2018-08-30T17:05:26.610Z,7.87
2018-08-30T17:07:57.643Z,8.13
2018-08-30T17:10:27.232Z,9.63
2018-08-30T17:12:57.928Z,7.50
2018-08-30T17:15:26.506Z,8.17
2018-08-30T17:17:55.617Z,8.33
2018-08-30T17:20:32.397Z,7.70
2018-08-30T17:23:00.762Z,8.33
2018-08-30T17:25:29.164Z,6.10
2018-08-30T17:27:57.587Z,10.00
2018-08-30T17:30:25.923Z,9.13
2018-08-30T17:32:56.344Z,6.23
2018-08-30T17:35:26.089Z,9.63
2018-08-30T17:37:55.545Z,10.50
2018-08-30T17:40:25.142Z,10.93
2018-08-30T17:42:54.414Z,7.57
2018-08-30T17:45:24.280Z,7.30
2018-08-30T17:47:53.273Z,10.43
2018-08-30T17:50:21.799Z,7.70
2018-08-30T17:52:51.029Z,7.70
2018-08-30T17:55:20.273Z,7.90
2018-08-30T17:57:49.497Z,6.90
2018-08-30T18:00:18.645Z,7.27
2018-08-30T18:02:48.277Z,8.43
2018-08-30T18:05:17.730Z,8.60
2018-08-30T18:07:47.180Z,7.77
2018-08-30T18:10:16.034Z,7.50
2018-08-30T18:12:46.420Z,8.30
2018-08-30T18:15:17.249Z,7.17
2018-08-30T18:17:46.992Z,8.10
2018-08-30T18:20:16.419Z,7.27
2018-08-30T18:22:45.935Z,5.50
2018-08-30T18:25:14.914Z,7.03
2018-08-30T18:27:44.410Z,7.30
2018-08-30T18:30:12.947Z,6.43
2018-08-30T18:32:41.421Z,7.10
2018-08-30T18:35:10.432Z,8.53
2018-08-30T18:37:40.248Z,7.30
2018-08-30T18:40:09.272Z,9.73
2018-08-30T18:42:37.923Z,9.17
2018-08-30T18:45:07.384Z,10.77
2018-08-30T18:47:37.274Z,11.50
2018-08-30T18:50:06.663Z,10.93
2018-08-30T18:52:35.877Z,10.80
2018-08-30T18:55:05.624Z,10.67
2018-08-30T18:57:35.011Z,11.00
2018-08-30T19:00:03.498Z,9.47
2018-08-30T19:02:31.848Z,7.60
2018-08-30T19:05:00.224Z,12.90
2018-08-30T19:07:29.725Z,15.10
2018-08-30T19:09:59.193Z,10.73
2018-08-30T19:12:28.477Z,13.00
2018-08-30T19:14:57.706Z,10.47
2018-08-30T19:18:31.281Z,16.70
2018-08-30T19:21:00.567Z,12.63
2018-08-30T19:23:29.797Z,11.23
2018-08-30T19:25:59.096Z,10.40
2018-08-30T19:28:27.492Z,10.53
2018-08-30T19:30:57.903Z,11.03
2018-08-30T19:33:27.328Z,12.13
2018-08-30T19:36:01.905Z,16.50
2018-08-30T19:38:31.301Z,14.07
2018-08-30T19:41:06.038Z,12.83
2018-08-30T19:43:35.434Z,15.60
2018-08-30T19:46:03.781Z,16.83
2018-08-30T19:48:32.164Z,14.77
2018-08-30T19:51:01.464Z,19.10
2018-08-30T19:53:30.852Z,15.40
2018-08-30T19:55:59.253Z,14.17
2018-08-30T19:58:27.717Z,14.70
2018-08-30T20:00:56.027Z,16.23
2018-08-30T20:03:26.489Z,16.53
2018-08-30T20:05:55.857Z,15.10
2018-08-30T20:08:25.394Z,17.80
2018-08-30T20:10:54.493Z,18.83
2018-08-30T20:13:23.921Z,16.83
2018-08-30T20:15:52.284Z,17.60
2018-08-30T20:18:20.751Z,20.03
2018-08-30T20:20:49.092Z,18.13
2018-08-30T20:23:17.445Z,17.73
2018-08-30T20:25:46.416Z,15.33
2018-08-30T20:28:15.506Z,18.47
2018-08-30T20:30:43.937Z,14.93
2018-08-30T20:33:12.308Z,14.33
2018-08-30T20:35:40.713Z,18.10
2018-08-30T20:38:09.057Z,15.10
2018-08-30T20:40:37.385Z,13.80
2018-08-30T20:43:06.078Z,12.80
2018-08-30T20:45:35.421Z,18.33
2018-08-30T20:48:04.676Z,16.70
2018-08-30T20:50:33.091Z,16.00
2018-08-30T20:53:02.810Z,12.17
2018-08-30T20:55:32.046Z,14.67
2018-08-30T20:58:00.464Z,12.23
2018-08-30T21:00:29.785Z,14.03
2018-08-30T21:02:59.016Z,11.13
2018-08-30T21:05:28.230Z,10.97
2018-08-30T21:07:57.690Z,10.83
2018-08-30T21:10:27.135Z,14.33
2018-08-30T21:12:56.560Z,12.60
2018-08-30T21:15:26.028Z,13.93
2018-08-30T21:17:56.493Z,13.87
2018-08-30T21:20:25.694Z,15.53
2018-08-30T21:22:54.460Z,12.80
2018-08-30T21:25:22.955Z,10.50
2018-08-30T21:27:51.341Z,12.50
2018-08-30T21:30:19.698Z,14.40
2018-08-30T21:32:48.061Z,11.27
2018-08-30T21:35:17.385Z,16.00
2018-08-30T21:37:46.801Z,13.47
2018-08-30T21:40:15.329Z,11.50
2018-08-30T21:42:44.408Z,14.07
2018-08-30T21:45:13.489Z,13.43
2018-08-30T21:47:41.973Z,14.90
2018-08-30T21:50:10.408Z,12.80
2018-08-30T21:52:38.738Z,13.23
2018-08-30T21:55:07.092Z,14.20
2018-08-30T21:57:35.505Z,14.27
2018-08-30T22:00:04.035Z,15.80
2018-08-30T22:02:32.439Z,15.17
2018-08-30T22:05:00.773Z,13.93
2018-08-30T22:07:29.126Z,17.80
2018-08-30T22:09:57.469Z,15.93
2018-08-30T22:12:27.353Z,16.43
2018-08-30T22:14:56.354Z,17.60
2018-08-30T22:17:25.677Z,12.17
2018-08-30T22:19:54.456Z,13.13
2018-08-30T22:22:23.877Z,16.73
2018-08-30T22:24:52.999Z,17.03
2018-08-30T22:27:21.332Z,15.00
2018-08-30T22:29:49.673Z,11.07
2018-08-30T22:32:18.065Z,13.47
2018-08-30T22:34:46.497Z,13.87
2018-08-30T22:37:15.549Z,14.13
2018-08-30T22:39:43.992Z,14.50
2018-08-30T22:42:12.372Z,17.07
2018-08-30T22:44:40.773Z,8.97
2018-08-30T22:47:09.116Z,11.73
2018-08-30T22:49:37.462Z,11.80
2018-08-30T22:52:05.800Z,16.10
2018-08-30T22:54:34.125Z,20.10
2018-08-30T22:57:02.500Z,12.03
2018-08-30T22:59:30.896Z,10.30
2018-08-30T23:01:59.314Z,8.20
2018-08-30T23:04:27.797Z,13.03
2018-08-30T23:06:56.265Z,9.80
2018-08-30T23:09:25.273Z,13.87
2018-08-30T23:11:55.068Z,8.87
2018-08-30T23:14:23.565Z,17.90
2018-08-30T23:16:51.992Z,6.07
2018-08-30T23:19:20.316Z,16.33
2018-08-30T23:21:48.640Z,12.67
2018-08-30T23:24:16.961Z,7.20
2018-08-30T23:26:46.512Z,4.70
2018-08-30T23:29:16.058Z,18.53
2018-08-30T23:31:45.350Z,13.50
2018-08-30T23:34:14.377Z,10.47
2018-08-30T23:36:43.488Z,14.20
2018-08-30T23:39:13.437Z,13.83
2018-08-30T23:41:41.769Z,11.23
2018-08-30T23:44:10.422Z,7.90
2018-08-30T23:46:39.337Z,7.70
2018-08-30T23:49:07.719Z,11.03
2018-08-30T23:51:36.096Z,9.70
2018-08-30T23:54:04.483Z,10.23
2018-08-30T23:56:33.620Z,11.10
2018-08-30T23:59:14.696Z,9.00
